createdAt,value
2017-10-10T00:00:37.715Z,1015.55
2017-10-10T00:01:59.602Z,1015.57
2017-10-10T00:03:21.136Z,1015.55
2017-10-10T00:04:42.997Z,1015.54
2017-10-10T00:06:04.171Z,1015.54
2017-10-10T00:07:26.046Z,1015.48
2017-10-10T00:08:48.245Z,1015.46
2017-10-10T00:10:10.437Z,1015.54
2017-10-10T00:11:33.006Z,1015.5
2017-10-10T00:12:55.226Z,1015.52
2017-10-10T00:14:17.410Z,1015.48
2017-10-10T00:15:39.616Z,1015.5
2017-10-10T00:17:01.462Z,1015.48
2017-10-10T00:18:23.696Z,1015.51
2017-10-10T00:19:46.259Z,1015.49
2017-10-10T00:21:08.246Z,1015.47
2017-10-10T00:22:30.466Z,1015.41
2017-10-10T00:23:53.018Z,1015.43
2017-10-10T00:25:14.886Z,1015.41
2017-10-10T00:26:36.767Z,1015.41
2017-10-10T00:27:59.346Z,1015.43
2017-10-10T00:29:20.969Z,1015.37
2017-10-10T00:30:43.185Z,1015.35
2017-10-10T00:32:04.832Z,1015.35
2017-10-10T00:33:27.384Z,1015.38
2017-10-10T00:34:49.285Z,1015.3
2017-10-10T00:36:11.796Z,1015.3
2017-10-10T00:37:33.967Z,1015.3
2017-10-10T00:38:56.167Z,1015.25
2017-10-10T00:40:18.018Z,1015.23
2017-10-10T00:41:40.536Z,1015.23
2017-10-10T00:43:02.811Z,1015.21
2017-10-10T00:44:24.985Z,1015.22
2017-10-10T00:45:47.648Z,1015.24
2017-10-10T00:47:09.161Z,1015.17
2017-10-10T00:48:31.677Z,1015.15
2017-10-10T00:49:54.607Z,1015.17
2017-10-10T00:51:16.786Z,1015.17
2017-10-10T00:52:38.962Z,1015.19
2017-10-10T00:54:01.157Z,1015.2
2017-10-10T00:55:23.037Z,1015.2
2017-10-10T00:56:45.550Z,1015.15
2017-10-10T00:58:07.747Z,1015.18
2017-10-10T00:59:29.596Z,1015.15
2017-10-10T01:00:52.463Z,1015.18
2017-10-10T01:02:14.656Z,1015.2
2017-10-10T01:03:36.855Z,1015.17
2017-10-10T01:04:58.696Z,1015.21
2017-10-10T01:06:21.567Z,1015.14
2017-10-10T01:07:43.745Z,1015.18
2017-10-10T01:09:05.603Z,1015.18
2017-10-10T01:10:28.127Z,1015.16
2017-10-10T01:11:50.005Z,1015.16
2017-10-10T01:13:12.177Z,1015.12
2017-10-10T01:14:33.360Z,1015.12
2017-10-10T01:15:54.869Z,1015.14
2017-10-10T01:17:16.847Z,1015.09
2017-10-10T01:18:39.447Z,1015.05
2017-10-10T01:20:01.955Z,1015.04
2017-10-10T01:21:24.138Z,1015.01
2017-10-10T01:22:46.337Z,1014.96
2017-10-10T01:24:07.913Z,1014.98
2017-10-10T01:25:29.456Z,1015.01
2017-10-10T01:26:50.971Z,1014.92
2017-10-10T01:28:13.466Z,1014.91
2017-10-10T01:29:35.307Z,1014.95
2017-10-10T01:30:57.501Z,1014.9
2017-10-10T01:32:19.693Z,1014.88
2017-10-10T01:33:41.900Z,1014.89
2017-10-10T01:35:04.104Z,1014.9
2017-10-10T01:36:25.946Z,1014.88
2017-10-10T01:37:48.204Z,1014.87
2017-10-10T01:39:10.060Z,1014.84
2017-10-10T01:40:32.016Z,1014.84
2017-10-10T01:41:53.211Z,1014.8
2017-10-10T01:43:15.393Z,1014.82
2017-10-10T01:44:38.347Z,1014.76
2017-10-10T01:46:00.617Z,1014.79
2017-10-10T01:47:22.827Z,1014.74
2017-10-10T01:48:44.684Z,1014.73
2017-10-10T01:50:06.194Z,1014.72
2017-10-10T01:51:27.730Z,1014.71
2017-10-10T01:52:49.572Z,1014.69
2017-10-10T01:54:12.090Z,1014.72
2017-10-10T01:55:34.300Z,1014.66
2017-10-10T01:56:56.536Z,1014.66
2017-10-10T01:58:18.738Z,1014.62
2017-10-10T01:59:40.939Z,1014.63
2017-10-10T02:01:03.708Z,1014.6
2017-10-10T02:02:25.215Z,1014.57
2017-10-10T02:03:46.715Z,1014.5
2017-10-10T02:05:08.567Z,1014.5
2017-10-10T02:06:30.750Z,1014.47
2017-10-10T02:07:53.066Z,1014.46
2017-10-10T02:09:14.566Z,1014.42
2017-10-10T02:10:36.466Z,1014.4
2017-10-10T02:11:59.326Z,1014.4
2017-10-10T02:13:21.176Z,1014.39
2017-10-10T02:14:43.023Z,1014.34
2017-10-10T02:16:05.216Z,1014.33
2017-10-10T02:17:26.387Z,1014.36
2017-10-10T02:18:48.246Z,1014.37
2017-10-10T02:20:10.418Z,1014.3
2017-10-10T02:21:32.613Z,1014.31
2017-10-10T02:22:55.244Z,1014.33
2017-10-10T02:24:16.766Z,1014.3
2017-10-10T02:25:38.641Z,1014.29
2017-10-10T02:27:00.147Z,1014.31
2017-10-10T02:28:23.376Z,1014.31
2017-10-10T02:29:44.886Z,1014.26
2017-10-10T02:31:07.405Z,1014.31
2017-10-10T02:32:29.246Z,1014.25
2017-10-10T02:33:51.826Z,1014.28
2017-10-10T02:35:14.355Z,1014.31
2017-10-10T02:36:36.192Z,1014.22
2017-10-10T02:37:58.401Z,1014.28
2017-10-10T02:39:20.955Z,1014.27
2017-10-10T02:40:43.157Z,1014.22
2017-10-10T02:42:05.347Z,1014.28
2017-10-10T02:43:27.524Z,1014.29
2017-10-10T02:44:49.397Z,1014.29
2017-10-10T02:46:11.245Z,1014.3
2017-10-10T02:47:33.773Z,1014.28
2017-10-10T02:48:56.297Z,1014.26
2017-10-10T02:50:18.590Z,1014.28
2017-10-10T02:51:40.116Z,1014.29
2017-10-10T02:53:02.303Z,1014.28
2017-10-10T02:54:24.160Z,1014.24
2017-10-10T02:55:46.245Z,1014.28
2017-10-10T02:57:08.766Z,1014.26
2017-10-10T02:58:30.679Z,1014.25
2017-10-10T02:59:53.196Z,1014.26
2017-10-10T03:01:15.784Z,1014.19
2017-10-10T03:02:37.728Z,1014.24
2017-10-10T03:03:59.245Z,1014.21
2017-10-10T03:05:21.468Z,1014.25
2017-10-10T03:06:43.945Z,1014.18
2017-10-10T03:08:05.836Z,1014.21
2017-10-10T03:09:27.706Z,1014.13
2017-10-10T03:10:49.437Z,1014.15
2017-10-10T03:12:11.306Z,1014.13
2017-10-10T03:13:33.505Z,1014.09
2017-10-10T03:14:55.055Z,1014.07
2017-10-10T03:16:16.915Z,1014.12
2017-10-10T03:17:38.796Z,1014.1
2017-10-10T03:19:00.003Z,1014.06
2017-10-10T03:20:21.527Z,1014.08
2017-10-10T03:21:43.052Z,1014.06
2017-10-10T03:23:04.929Z,1014.02
2017-10-10T03:24:27.168Z,1014.01
2017-10-10T03:25:49.026Z,1014.03
2017-10-10T03:27:11.561Z,1014.02
2017-10-10T03:28:33.096Z,1014.03
2017-10-10T03:29:55.266Z,1013.97
2017-10-10T03:31:16.834Z,1014
2017-10-10T03:32:39.029Z,1014
2017-10-10T03:34:02.115Z,1014
2017-10-10T03:35:24.280Z,1013.98
2017-10-10T03:36:45.808Z,1013.97
2017-10-10T03:38:07.989Z,1013.96
2017-10-10T03:39:30.186Z,1013.96
2017-10-10T03:40:51.717Z,1013.96
2017-10-10T03:42:13.244Z,1013.95
2017-10-10T03:43:34.447Z,1013.95
2017-10-10T03:44:57.317Z,1013.94
2017-10-10T03:46:18.902Z,1013.92
2017-10-10T03:47:41.080Z,1013.88
2017-10-10T03:49:02.936Z,1013.92
2017-10-10T03:50:24.474Z,1013.93
2017-10-10T03:51:46.674Z,1013.9
2017-10-10T03:53:09.286Z,1013.9
2017-10-10T03:54:31.803Z,1013.89
2017-10-10T03:55:53.999Z,1013.86
2017-10-10T03:57:15.849Z,1013.85
2017-10-10T03:58:37.536Z,1013.82
2017-10-10T03:59:59.763Z,1013.85
2017-10-10T04:01:22.066Z,1013.86
2017-10-10T04:02:43.571Z,1013.83
2017-10-10T04:04:06.146Z,1013.85
2017-10-10T04:05:28.332Z,1013.82
2017-10-10T04:06:50.531Z,1013.84
2017-10-10T04:08:11.386Z,1013.83
2017-10-10T04:09:33.661Z,1013.79
2017-10-10T04:10:55.562Z,1013.81
2017-10-10T04:12:17.756Z,1013.86
2017-10-10T04:13:40.335Z,1013.79
2017-10-10T04:15:01.866Z,1013.8
2017-10-10T04:16:23.725Z,1013.77
2017-10-10T04:17:45.605Z,1013.75
2017-10-10T04:19:07.464Z,1013.75
2017-10-10T04:20:29.658Z,1013.72
2017-10-10T04:21:52.174Z,1013.72
2017-10-10T04:23:13.715Z,1013.68
2017-10-10T04:24:35.231Z,1013.72
2017-10-10T04:25:57.079Z,1013.72
2017-10-10T04:27:18.976Z,1013.73
2017-10-10T04:28:40.916Z,1013.71
2017-10-10T04:30:03.208Z,1013.67
2017-10-10T04:31:25.127Z,1013.67
2017-10-10T04:32:46.658Z,1013.69
2017-10-10T04:34:08.421Z,1013.67
2017-10-10T04:35:31.025Z,1013.66
2017-10-10T04:36:52.946Z,1013.64
2017-10-10T04:38:15.116Z,1013.66
2017-10-10T04:39:37.006Z,1013.74
2017-10-10T04:40:58.626Z,1013.67
2017-10-10T04:42:20.848Z,1013.66
2017-10-10T04:43:42.484Z,1013.65
2017-10-10T04:45:04.737Z,1013.66
2017-10-10T04:46:26.725Z,1013.64
2017-10-10T04:47:48.595Z,1013.68
2017-10-10T04:49:10.455Z,1013.61
2017-10-10T04:50:32.948Z,1013.64
2017-10-10T04:51:55.233Z,1013.65
2017-10-10T04:53:17.082Z,1013.63
2017-10-10T04:54:39.337Z,1013.61
2017-10-10T04:56:02.126Z,1013.63
2017-10-10T04:57:23.979Z,1013.58
2017-10-10T04:58:46.284Z,1013.58
2017-10-10T05:00:08.258Z,1013.56
2017-10-10T05:01:30.563Z,1013.6
2017-10-10T05:02:52.757Z,1013.62
2017-10-10T05:04:15.281Z,1013.61
2017-10-10T05:05:36.484Z,1013.59
2017-10-10T05:06:58.975Z,1013.58
2017-10-10T05:08:20.498Z,1013.55
2017-10-10T05:09:42.663Z,1013.55
2017-10-10T05:11:04.614Z,1013.6
2017-10-10T05:12:26.823Z,1013.56
2017-10-10T05:13:48.716Z,1013.55
2017-10-10T05:15:11.460Z,1013.56
2017-10-10T05:16:34.012Z,1013.55
2017-10-10T05:17:56.565Z,1013.62
2017-10-10T05:19:18.211Z,1013.61
2017-10-10T05:20:40.084Z,1013.61
2017-10-10T05:22:01.948Z,1013.59
2017-10-10T05:23:24.495Z,1013.65
2017-10-10T05:24:46.410Z,1013.63
2017-10-10T05:26:08.585Z,1013.65
2017-10-10T05:27:30.434Z,1013.65
2017-10-10T05:28:52.323Z,1013.61
2017-10-10T05:30:14.717Z,1013.6
2017-10-10T05:31:36.923Z,1013.61
2017-10-10T05:32:59.128Z,1013.61
2017-10-10T05:34:21.319Z,1013.58
2017-10-10T05:35:43.182Z,1013.63
2017-10-10T05:37:04.705Z,1013.53
2017-10-10T05:38:26.884Z,1013.53
2017-10-10T05:39:49.409Z,1013.56
2017-10-10T05:41:11.334Z,1013.52
2017-10-10T05:42:33.234Z,1013.53
2017-10-10T05:43:54.415Z,1013.53
2017-10-10T05:45:16.515Z,1013.5
2017-10-10T05:46:38.034Z,1013.47
2017-10-10T05:47:59.873Z,1013.42
2017-10-10T05:49:22.115Z,1013.48
2017-10-10T05:50:44.321Z,1013.48
2017-10-10T05:52:05.517Z,1013.46
2017-10-10T05:53:28.035Z,1013.5
2017-10-10T05:54:50.230Z,1013.5
2017-10-10T05:56:12.095Z,1013.52
2017-10-10T05:57:34.325Z,1013.54
2017-10-10T05:58:56.514Z,1013.51
2017-10-10T06:00:18.095Z,1013.55
2017-10-10T06:01:40.304Z,1013.51
2017-10-10T06:03:02.491Z,1013.49
2017-10-10T06:04:24.688Z,1013.5
2017-10-10T06:05:46.548Z,1013.52
2017-10-10T06:07:09.740Z,1013.53
2017-10-10T06:08:31.936Z,1013.58
2017-10-10T06:09:54.155Z,1013.6
2017-10-10T06:11:16.008Z,1013.63
2017-10-10T06:12:37.886Z,1013.62
2017-10-10T06:13:59.734Z,1013.62
2017-10-10T06:15:21.904Z,1013.61
2017-10-10T06:16:44.097Z,1013.59
2017-10-10T06:18:05.979Z,1013.55
2017-10-10T06:19:27.504Z,1013.59
2017-10-10T06:20:49.678Z,1013.63
2017-10-10T06:22:11.533Z,1013.67
2017-10-10T06:23:33.073Z,1013.7
2017-10-10T06:24:55.271Z,1013.64
2017-10-10T06:26:17.158Z,1013.67
2017-10-10T06:27:39.077Z,1013.64
2017-10-10T06:29:01.265Z,1013.64
2017-10-10T06:30:23.106Z,1013.67
2017-10-10T06:31:44.956Z,1013.64
2017-10-10T06:33:06.804Z,1013.63
2017-10-10T06:34:29.015Z,1013.66
2017-10-10T06:35:50.520Z,1013.69
2017-10-10T06:37:12.375Z,1013.62
2017-10-10T06:38:34.567Z,1013.69
2017-10-10T06:39:57.115Z,1013.67
2017-10-10T06:41:19.313Z,1013.67
2017-10-10T06:42:41.528Z,1013.67
2017-10-10T06:44:03.515Z,1013.69
2017-10-10T06:45:24.710Z,1013.7
2017-10-10T06:46:46.669Z,1013.72
2017-10-10T06:48:08.619Z,1013.78
2017-10-10T06:49:30.805Z,1013.76
2017-10-10T06:50:53.402Z,1013.8
2017-10-10T06:52:14.594Z,1013.78
2017-10-10T06:53:37.125Z,1013.75
2017-10-10T06:54:57.978Z,1013.75
2017-10-10T06:56:20.456Z,1013.77
2017-10-10T06:57:42.376Z,1013.77
2017-10-10T06:59:04.656Z,1013.79
2017-10-10T07:00:26.188Z,1013.77
2017-10-10T07:01:49.536Z,1013.77
2017-10-10T07:03:11.049Z,1013.77
2017-10-10T07:04:33.020Z,1013.79
2017-10-10T07:05:55.524Z,1013.76
2017-10-10T07:07:18.447Z,1013.79
2017-10-10T07:08:40.660Z,1013.8
2017-10-10T07:10:02.919Z,1013.81
2017-10-10T07:11:25.186Z,1013.85
2017-10-10T07:12:47.850Z,1013.82
2017-10-10T07:14:10.135Z,1013.8
2017-10-10T07:15:32.655Z,1013.84
2017-10-10T07:16:55.187Z,1013.82
2017-10-10T07:18:17.967Z,1013.84
2017-10-10T07:19:40.159Z,1013.87
2017-10-10T07:21:02.121Z,1013.89
2017-10-10T07:22:24.044Z,1013.88
2017-10-10T07:23:45.885Z,1013.91
2017-10-10T07:25:07.745Z,1013.9
2017-10-10T07:26:30.227Z,1013.91
2017-10-10T07:27:52.250Z,1013.87
2017-10-10T07:29:14.366Z,1013.95
2017-10-10T07:30:36.545Z,1013.93
2017-10-10T07:31:58.921Z,1013.95
2017-10-10T07:33:21.439Z,1013.98
2017-10-10T07:34:44.038Z,1013.95
2017-10-10T07:36:06.673Z,1013.95
2017-10-10T07:37:28.527Z,1013.95
2017-10-10T07:38:51.209Z,1013.91
2017-10-10T07:40:14.160Z,1013.86
2017-10-10T07:41:36.355Z,1013.91
2017-10-10T07:42:58.926Z,1013.95
2017-10-10T07:44:20.436Z,1013.93
2017-10-10T07:45:42.848Z,1013.92
2017-10-10T07:47:05.477Z,1013.95
2017-10-10T07:48:28.008Z,1013.99
2017-10-10T07:49:50.193Z,1013.95
2017-10-10T07:51:12.440Z,1014.01
2017-10-10T07:52:34.637Z,1013.99
2017-10-10T07:53:57.345Z,1013.97
2017-10-10T07:55:19.883Z,1013.93
2017-10-10T07:56:42.394Z,1013.98
2017-10-10T07:58:04.196Z,1013.97
2017-10-10T07:59:26.769Z,1013.96
2017-10-10T08:00:49.069Z,1013.99
2017-10-10T08:02:11.408Z,1013.96
2017-10-10T08:03:33.614Z,1014.03
2017-10-10T08:04:55.806Z,1014.06
2017-10-10T08:06:17.988Z,1014.06
2017-10-10T08:07:39.876Z,1014.07
2017-10-10T08:09:02.111Z,1014.04
2017-10-10T08:10:24.322Z,1014.08
2017-10-10T08:11:46.184Z,1014.1
2017-10-10T08:13:08.647Z,1014.1
2017-10-10T08:14:30.547Z,1014.11
2017-10-10T08:15:53.075Z,1014.15
2017-10-10T08:17:14.938Z,1014.13
2017-10-10T08:18:37.472Z,1014.13
2017-10-10T08:19:59.359Z,1014.12
2017-10-10T08:21:21.657Z,1014.1
2017-10-10T08:22:43.523Z,1014.05
2017-10-10T08:24:06.047Z,1014.11
2017-10-10T08:25:28.268Z,1014.12
2017-10-10T08:26:50.494Z,1014.08
2017-10-10T08:28:12.031Z,1014.12
2017-10-10T08:29:33.917Z,1014.09
2017-10-10T08:30:55.950Z,1014.08
2017-10-10T08:32:18.166Z,1014.11
2017-10-10T08:33:40.387Z,1014.08
2017-10-10T08:35:02.077Z,1014.07
2017-10-10T08:36:23.961Z,1014.13
2017-10-10T08:37:46.507Z,1014.17
2017-10-10T08:39:08.042Z,1014.17
2017-10-10T08:40:30.301Z,1014.11
2017-10-10T08:41:52.496Z,1014.02
2017-10-10T08:43:14.692Z,1013.99
2017-10-10T08:44:36.932Z,1014.03
2017-10-10T08:45:58.807Z,1014.06
2017-10-10T08:47:21.018Z,1014.06
2017-10-10T08:48:43.219Z,1014.06
2017-10-10T08:50:05.664Z,1014.05
2017-10-10T08:51:28.207Z,1014.11
2017-10-10T08:52:50.047Z,1014.14
2017-10-10T08:54:12.281Z,1014.1
2017-10-10T08:55:34.460Z,1014.18
2017-10-10T08:56:57.085Z,1014.16
2017-10-10T08:58:19.279Z,1014.14
2017-10-10T08:59:40.856Z,1014.14
2017-10-10T09:01:03.057Z,1014.14
2017-10-10T09:02:25.624Z,1014.22
2017-10-10T09:03:47.817Z,1014.23
2017-10-10T09:05:10.042Z,1014.19
2017-10-10T09:06:32.666Z,1014.21
2017-10-10T09:07:54.550Z,1014.2
2017-10-10T09:09:16.765Z,1014.19
2017-10-10T09:10:38.636Z,1014.18
2017-10-10T09:12:00.531Z,1014.11
2017-10-10T09:13:22.387Z,1014.14
2017-10-10T09:14:44.916Z,1014.14
2017-10-10T09:16:06.108Z,1014.15
2017-10-10T09:17:28.770Z,1014.2
2017-10-10T09:18:50.695Z,1014.13
2017-10-10T09:20:13.242Z,1014.18
2017-10-10T09:21:35.865Z,1014.18
2017-10-10T09:22:58.081Z,1014.17
2017-10-10T09:24:20.656Z,1014.22
2017-10-10T09:25:42.529Z,1014.17
2017-10-10T09:27:04.826Z,1014.24
2017-10-10T09:28:27.351Z,1014.24
2017-10-10T09:29:49.290Z,1014.23
2017-10-10T09:31:11.827Z,1014.28
2017-10-10T09:32:33.711Z,1014.33
2017-10-10T09:33:55.556Z,1014.31
2017-10-10T09:35:18.319Z,1014.29
2017-10-10T09:36:40.516Z,1014.33
2017-10-10T09:38:02.370Z,1014.31
2017-10-10T09:39:24.636Z,1014.32
2017-10-10T09:40:47.160Z,1014.34
2017-10-10T09:42:09.692Z,1014.26
2017-10-10T09:43:31.537Z,1014.24
2017-10-10T09:44:54.086Z,1014.3
2017-10-10T09:46:16.987Z,1014.32
2017-10-10T09:47:39.520Z,1014.33
2017-10-10T09:49:01.400Z,1014.3
2017-10-10T09:50:23.347Z,1014.28
2017-10-10T09:51:46.348Z,1014.29
2017-10-10T09:53:08.606Z,1014.25
2017-10-10T09:54:31.156Z,1014.23
2017-10-10T09:55:53.372Z,1014.27
2017-10-10T09:57:15.566Z,1014.33
2017-10-10T09:58:37.906Z,1014.28
2017-10-10T09:59:59.817Z,1014.28
2017-10-10T10:01:21.362Z,1014.3
2017-10-10T10:02:43.172Z,1014.31
2017-10-10T10:04:05.741Z,1014.31
2017-10-10T10:05:27.977Z,1014.32
2017-10-10T10:06:50.508Z,1014.29
2017-10-10T10:08:13.537Z,1014.32
2017-10-10T10:09:35.774Z,1014.29
2017-10-10T10:10:57.398Z,1014.28
2017-10-10T10:12:19.606Z,1014.24
2017-10-10T10:13:41.875Z,1014.31
2017-10-10T10:15:04.085Z,1014.26
2017-10-10T10:16:25.924Z,1014.26
2017-10-10T10:17:48.126Z,1014.22
2017-10-10T10:19:11.157Z,1014.25
2017-10-10T10:20:33.044Z,1014.33
2017-10-10T10:21:55.572Z,1014.35
2017-10-10T10:23:17.508Z,1014.37
2017-10-10T10:24:40.046Z,1014.42
2017-10-10T10:26:02.234Z,1014.41
2017-10-10T10:27:24.106Z,1014.35
2017-10-10T10:28:45.996Z,1014.27
2017-10-10T10:30:08.254Z,1014.28
2017-10-10T10:31:30.435Z,1014.36
2017-10-10T10:32:52.632Z,1014.35
2017-10-10T10:34:14.521Z,1014.3
2017-10-10T10:35:37.091Z,1014.37
2017-10-10T10:36:59.301Z,1014.31
2017-10-10T10:38:21.516Z,1014.19
2017-10-10T10:39:43.388Z,1014.23
2017-10-10T10:41:05.238Z,1014.25
2017-10-10T10:42:27.439Z,1014.26
2017-10-10T10:43:48.968Z,1014.32
2017-10-10T10:45:11.175Z,1014.32
2017-10-10T10:46:33.719Z,1014.35
2017-10-10T10:47:56.330Z,1014.26
2017-10-10T10:49:18.517Z,1014.28
2017-10-10T10:50:41.138Z,1014.18
2017-10-10T10:52:03.048Z,1014.16
2017-10-10T10:53:25.226Z,1014.21
2017-10-10T10:54:47.587Z,1014.15
2017-10-10T10:56:09.484Z,1014.11
2017-10-10T10:57:31.365Z,1014.11
2017-10-10T10:58:52.911Z,1014.06
2017-10-10T11:00:15.461Z,1014.06
2017-10-10T11:01:38.026Z,1014.06
2017-10-10T11:03:00.904Z,1014.11
2017-10-10T11:04:23.104Z,1014.03
2017-10-10T11:05:44.642Z,1014.12
2017-10-10T11:07:06.826Z,1014.19
2017-10-10T11:08:29.762Z,1014.15
2017-10-10T11:09:51.974Z,1014.26
2017-10-10T11:11:13.833Z,1014.21
2017-10-10T11:12:36.029Z,1014.21
2017-10-10T11:13:58.576Z,1014.22
2017-10-10T11:15:21.172Z,1014.26
2017-10-10T11:16:43.807Z,1014.28
2017-10-10T11:18:06.329Z,1014.22
2017-10-10T11:19:28.930Z,1014.21
2017-10-10T11:20:51.124Z,1014.11
2017-10-10T11:22:13.002Z,1014.16
2017-10-10T11:23:34.906Z,1014.19
2017-10-10T11:24:57.799Z,1014.26
2017-10-10T11:26:20.033Z,1014.27
2017-10-10T11:27:42.238Z,1014.25
2017-10-10T11:29:04.422Z,1014.19
2017-10-10T11:30:26.998Z,1014.16
2017-10-10T11:31:48.306Z,1014.23
2017-10-10T11:33:10.634Z,1014.19
2017-10-10T11:34:32.524Z,1014.16
2017-10-10T11:35:55.015Z,1014.26
2017-10-10T11:37:17.564Z,1014.3
2017-10-10T11:38:39.792Z,1014.22
2017-10-10T11:40:01.674Z,1014.24
2017-10-10T11:41:24.292Z,1014.2
2017-10-10T11:42:46.506Z,1014.18
2017-10-10T11:44:08.372Z,1014.16
2017-10-10T11:45:29.885Z,1014.17
2017-10-10T11:46:52.887Z,1014.16
2017-10-10T11:48:14.762Z,1014.11
2017-10-10T11:49:36.690Z,1014.13
2017-10-10T11:50:58.895Z,1014.18
2017-10-10T11:52:21.088Z,1014.13
2017-10-10T11:53:42.630Z,1014.11
2017-10-10T11:55:04.975Z,1014.09
2017-10-10T11:56:26.845Z,1014.11
2017-10-10T11:57:49.460Z,1014.09
2017-10-10T11:59:10.990Z,1014.14
2017-10-10T12:00:32.610Z,1014.1
2017-10-10T12:01:54.465Z,1014.13
2017-10-10T12:03:17.335Z,1014.15
2017-10-10T12:04:39.269Z,1014.11
2017-10-10T12:06:01.465Z,1014.22
2017-10-10T12:07:23.665Z,1014.23
2017-10-10T12:08:45.925Z,1014.19
2017-10-10T12:10:08.477Z,1014.17
2017-10-10T12:11:30.681Z,1014.17
2017-10-10T12:12:52.875Z,1014.15
2017-10-10T12:14:14.754Z,1014.14
2017-10-10T12:15:36.737Z,1014.13
2017-10-10T12:16:58.619Z,1014.16
2017-10-10T12:18:20.828Z,1014.14
2017-10-10T12:19:43.736Z,1014.15
2017-10-10T12:21:06.037Z,1014.13
2017-10-10T12:22:27.908Z,1014.12
2017-10-10T12:23:50.448Z,1014.13
2017-10-10T12:25:13.528Z,1014.11
2017-10-10T12:26:36.055Z,1014.04
2017-10-10T12:27:58.268Z,1014.09
2017-10-10T12:29:20.809Z,1014.03
2017-10-10T12:30:43.020Z,1014.06
2017-10-10T12:32:05.618Z,1014.05
2017-10-10T12:33:27.926Z,1014.04
2017-10-10T12:34:49.429Z,1014.03
2017-10-10T12:36:11.636Z,1014.07
2017-10-10T12:37:34.226Z,1014.07
2017-10-10T12:38:56.777Z,1014.04
2017-10-10T12:40:18.661Z,1014.12
2017-10-10T12:41:41.550Z,1014.19
2017-10-10T12:43:03.725Z,1014.17
2017-10-10T12:44:25.936Z,1014.15
2017-10-10T12:45:47.453Z,1014.15
2017-10-10T12:47:09.644Z,1014.1
2017-10-10T12:48:31.838Z,1014.06
2017-10-10T12:49:54.138Z,1014.08
2017-10-10T12:51:16.028Z,1014.05
2017-10-10T12:52:38.549Z,1014.03
2017-10-10T12:54:01.072Z,1014.06
2017-10-10T12:55:23.300Z,1014.06
2017-10-10T12:56:45.623Z,1014.06
2017-10-10T12:58:08.256Z,1013.99
2017-10-10T12:59:30.797Z,1014.04
2017-10-10T13:00:53.363Z,1014.01
2017-10-10T13:02:14.884Z,1014.01
2017-10-10T13:03:37.241Z,1014.07
2017-10-10T13:04:59.455Z,1014.01
2017-10-10T13:06:20.298Z,1014.04
2017-10-10T13:07:42.225Z,1014.1
2017-10-10T13:09:04.747Z,1014.04
2017-10-10T13:10:26.680Z,1014.03
2017-10-10T13:11:48.546Z,1014.01
2017-10-10T13:13:10.786Z,1013.97
2017-10-10T13:14:33.343Z,1014.01
2017-10-10T13:15:55.526Z,1013.96
2017-10-10T13:17:18.085Z,1013.94
2017-10-10T13:18:40.616Z,1013.91
2017-10-10T13:20:03.159Z,1013.97
2017-10-10T13:21:25.685Z,1013.95
2017-10-10T13:22:47.885Z,1013.98
2017-10-10T13:24:10.066Z,1014.04
2017-10-10T13:25:32.284Z,1014.07
2017-10-10T13:26:54.472Z,1014.1
2017-10-10T13:28:15.687Z,1014.08
2017-10-10T13:29:37.927Z,1014.07
2017-10-10T13:31:00.472Z,1014.08
2017-10-10T13:32:23.259Z,1014.05
2017-10-10T13:33:45.786Z,1014.07
2017-10-10T13:35:07.702Z,1014.04
2017-10-10T13:36:30.237Z,1013.98
2017-10-10T13:37:52.530Z,1014.02
2017-10-10T13:39:15.049Z,1014.01
2017-10-10T13:40:37.644Z,1014
2017-10-10T13:41:59.507Z,1013.96
2017-10-10T13:43:21.680Z,1013.95
2017-10-10T13:44:43.215Z,1013.98
2017-10-10T13:46:05.418Z,1013.94
2017-10-10T13:47:27.661Z,1013.93
2017-10-10T13:48:50.232Z,1013.91
2017-10-10T13:50:12.174Z,1013.86
2017-10-10T13:51:34.208Z,1013.87
2017-10-10T13:52:57.042Z,1013.88
2017-10-10T13:54:19.276Z,1013.85
2017-10-10T13:55:41.460Z,1013.84
2017-10-10T13:57:03.645Z,1013.82
2017-10-10T13:58:26.035Z,1013.8
2017-10-10T13:59:48.267Z,1013.83
2017-10-10T14:01:10.446Z,1013.84
2017-10-10T14:02:32.666Z,1013.82
2017-10-10T14:03:54.533Z,1013.79
2017-10-10T14:05:16.404Z,1013.82
2017-10-10T14:06:38.965Z,1013.78
2017-10-10T14:08:00.829Z,1013.76
2017-10-10T14:09:23.375Z,1013.81
2017-10-10T14:10:45.987Z,1013.83
2017-10-10T14:12:07.869Z,1013.71
2017-10-10T14:13:30.075Z,1013.8
2017-10-10T14:14:52.955Z,1013.77
2017-10-10T14:16:14.819Z,1013.75
2017-10-10T14:17:37.386Z,1013.75
2017-10-10T14:18:59.600Z,1013.77
2017-10-10T14:20:22.176Z,1013.73
2017-10-10T14:21:44.716Z,1013.74
2017-10-10T14:23:06.576Z,1013.71
2017-10-10T14:24:28.774Z,1013.77
2017-10-10T14:25:51.290Z,1013.79
2017-10-10T14:27:13.178Z,1013.73
2017-10-10T14:28:35.054Z,1013.77
2017-10-10T14:29:56.967Z,1013.77
2017-10-10T14:31:19.480Z,1013.72
2017-10-10T14:32:41.694Z,1013.75
2017-10-10T14:34:03.996Z,1013.78
2017-10-10T14:35:26.245Z,1013.71
2017-10-10T14:36:48.454Z,1013.73
2017-10-10T14:38:10.985Z,1013.7
2017-10-10T14:39:32.935Z,1013.69
2017-10-10T14:40:55.253Z,1013.74
2017-10-10T14:42:17.878Z,1013.69
2017-10-10T14:43:39.755Z,1013.69
2017-10-10T14:45:01.948Z,1013.68
2017-10-10T14:46:24.477Z,1013.67
2017-10-10T14:47:47.125Z,1013.67
2017-10-10T14:49:09.635Z,1013.67
2017-10-10T14:50:32.178Z,1013.71
2017-10-10T14:51:54.144Z,1013.7
2017-10-10T14:53:17.152Z,1013.71
2017-10-10T14:54:39.676Z,1013.69
2017-10-10T14:56:02.348Z,1013.67
2017-10-10T14:57:24.900Z,1013.68
2017-10-10T14:58:47.578Z,1013.73
2017-10-10T15:00:09.494Z,1013.72
2017-10-10T15:01:31.689Z,1013.73
2017-10-10T15:02:54.228Z,1013.74
2017-10-10T15:04:16.841Z,1013.72
2017-10-10T15:05:38.713Z,1013.75
2017-10-10T15:07:00.973Z,1013.72
2017-10-10T15:08:23.567Z,1013.67
2017-10-10T15:09:46.484Z,1013.62
2017-10-10T15:11:08.349Z,1013.6
2017-10-10T15:12:30.573Z,1013.6
2017-10-10T15:13:53.109Z,1013.61
2017-10-10T15:15:15.678Z,1013.6
2017-10-10T15:16:37.944Z,1013.66
2017-10-10T15:17:59.803Z,1013.6
2017-10-10T15:19:21.688Z,1013.66
2017-10-10T15:20:44.535Z,1013.64
2017-10-10T15:22:06.746Z,1013.68
2017-10-10T15:23:29.061Z,1013.66
2017-10-10T15:24:51.436Z,1013.7
2017-10-10T15:26:13.996Z,1013.69
2017-10-10T15:27:36.217Z,1013.73
2017-10-10T15:28:58.751Z,1013.71
2017-10-10T15:30:20.756Z,1013.7
2017-10-10T15:31:42.977Z,1013.66
2017-10-10T15:33:05.176Z,1013.72
2017-10-10T15:34:27.406Z,1013.65
2017-10-10T15:35:49.696Z,1013.69
2017-10-10T15:37:11.907Z,1013.66
2017-10-10T15:38:34.475Z,1013.7
2017-10-10T15:39:55.332Z,1013.66
2017-10-10T15:41:17.535Z,1013.71
2017-10-10T15:42:39.775Z,1013.69
2017-10-10T15:44:01.995Z,1013.66
2017-10-10T15:45:23.863Z,1013.7
2017-10-10T15:46:45.735Z,1013.73
2017-10-10T15:48:07.949Z,1013.71
2017-10-10T15:49:30.504Z,1013.76
2017-10-10T15:50:52.121Z,1013.74
2017-10-10T15:52:13.667Z,1013.71
2017-10-10T15:53:36.146Z,1013.67
2017-10-10T15:54:58.709Z,1013.64
2017-10-10T15:56:21.234Z,1013.67
2017-10-10T15:57:43.787Z,1013.65
2017-10-10T15:59:06.008Z,1013.67
2017-10-10T16:00:27.550Z,1013.68
2017-10-10T16:01:49.776Z,1013.7
2017-10-10T16:03:12.015Z,1013.74
2017-10-10T16:04:34.587Z,1013.71
2017-10-10T16:05:57.135Z,1013.74
2017-10-10T16:07:19.687Z,1013.73
2017-10-10T16:08:41.231Z,1013.74
2017-10-10T16:10:03.138Z,1013.78
2017-10-10T16:11:25.360Z,1013.75
2017-10-10T16:12:47.913Z,1013.8
2017-10-10T16:14:10.513Z,1013.78
2017-10-10T16:15:32.714Z,1013.74
2017-10-10T16:16:55.313Z,1013.72
2017-10-10T16:18:16.845Z,1013.74
2017-10-10T16:19:39.073Z,1013.71
2017-10-10T16:21:01.293Z,1013.75
2017-10-10T16:22:23.534Z,1013.81
2017-10-10T16:23:45.861Z,1013.84
2017-10-10T16:25:07.795Z,1013.87
2017-10-10T16:26:29.990Z,1013.79
2017-10-10T16:27:51.866Z,1013.83
2017-10-10T16:29:14.144Z,1013.86
2017-10-10T16:30:35.732Z,1013.86
2017-10-10T16:31:57.614Z,1013.85
2017-10-10T16:33:20.300Z,1013.82
2017-10-10T16:34:42.602Z,1013.86
2017-10-10T16:36:04.130Z,1013.88
2017-10-10T16:37:26.355Z,1013.89